SBPP/PMG METAR and TAF weather

Enter ICAO airport designator
Station Type Date Time Source
SBPP METAR 2019/12/08 22:00 UTC NOAA

SBPP 082200Z 00000KT 9999 SCT020 23/17 Q1011


Station Type Date Time Source
SBPP Decoded METAR 2019/12/08 22:00 UTC NOAA

Ponta Pora Intl , Brazil (SBPP) 22-33S 055-42W
Dec 08, 2019 - 05:00 PM EST / 2019.12.08 2200 UTC
Wind: Calm:0
Visibility: greater than 7 mile(s):0
Sky conditions: partly cloudy
Temperature: 73 F (23 C)
Dew Point: 62 F (17 C)
Relative Humidity: 68%
Pressure (altimeter): 29.85 in. Hg (1011 hPa)
ob: SBPP 082200Z 00000KT 9999 SCT020 23/17 Q1011
cycle: 22

Station Type Date Time Source
SBPP TAF 2019/12/09 06:54 UTC NOAA

TAF SBPP 090300Z 0906/1006 11008KT 9999 SCT025 FEW030TCU TN20/0908Z TX24/0918Z
TEMPO 0906/0912 8000 TSRA BKN004 FEW030CB
BECMG 0912/0914 BKN015
RMK PDJ

Example: see airport list